Time;durP1;ratioP1;P1;durP2;ratioP2;P2;SDS_P1;SDS_P2;PMS_P1;PMS_P2;Temp;Humidity;BMP_temperature;BMP_pressure;BME280_temperature;BME280_humidity;BME280_pressure;Samples;Min_cycle;Max_cycle;Signal;HPM_P1;HPM_P2
2024/01/25 00:00:41;;;;;;;9.13;2.92;;;;;;;8.39;62.64;100009.41;6221008;22;96874;-77
2024/01/25 00:03:06;;;;;;;7.68;2.85;;;;;;;8.33;62.87;100012.19;6194378;22;100890;-78
2024/01/25 00:05:32;;;;;;;9.38;2.72;;;;;;;8.12;62.29;99977.91;6221154;22;97429;-78
2024/01/25 00:07:57;;;;;;;12.25;2.53;;;;;;;8.39;62.72;100027.72;6220166;22;98581;-77
2024/01/25 00:10:23;;;;;;;9.63;2.35;;;;;;;8.30;62.42;100013.13;6221873;22;96720;-77
2024/01/25 00:12:48;;;;;;;14.07;3.78;;;;;;;8.37;62.71;100021.63;6220363;22;101300;-76
2024/01/25 00:15:14;;;;;;;11.75;2.70;;;;;;;8.28;62.83;100006.22;6221104;22;97410;-77
2024/01/25 00:17:40;;;;;;;14.50;2.72;;;;;;;8.36;62.52;100012.94;6219796;22;96724;-77
2024/01/25 00:20:06;;;;;;;13.38;3.15;;;;;;;8.39;62.04;100017.25;6221162;22;96820;-77
2024/01/25 00:22:31;;;;;;;12.90;2.85;;;;;;;8.23;62.02;100013.34;6220317;22;101442;-77
2024/01/25 00:24:58;;;;;;;18.60;4.60;;;;;;;8.33;62.34;100033.09;6246760;22;97469;-77
2024/01/25 00:27:24;;;;;;;14.82;3.03;;;;;;;8.25;62.26;100025.47;6192979;22;97031;-78
2024/01/25 00:29:49;;;;;;;15.20;3.63;;;;;;;8.31;62.03;100038.34;6245752;22;96912;-77
2024/01/25 00:32:15;;;;;;;12.75;3.33;;;;;;;8.31;61.88;100027.91;6246451;22;97358;-78
2024/01/25 00:34:41;;;;;;;14.30;3.25;;;;;;;8.32;61.22;100037.47;6220099;22;100958;-76
2024/01/25 00:37:07;;;;;;;10.65;2.83;;;;;;;8.42;61.14;100042.47;6247282;22;96717;-77
2024/01/25 00:39:32;;;;;;;13.40;3.15;;;;;;;8.35;61.17;100028.69;6220185;22;96975;-77
2024/01/25 00:42:05;;;;;;;13.50;3.35;;;;;;;8.39;60.69;100027.72;6220117;22;100497;-77
2024/01/25 00:44:31;;;;;;;14.35;3.33;;;;;;;8.36;60.89;100046.09;6246006;22;97517;-77
2024/01/25 00:46:56;;;;;;;13.00;2.85;;;;;;;8.52;60.59;100054.34;6221104;22;96740;-77
2024/01/25 00:49:22;;;;;;;12.68;2.90;;;;;;;8.55;59.92;100036.81;6220274;22;96769;-78
2024/01/25 00:51:48;;;;;;;16.23;3.25;;;;;;;8.59;59.22;100053.28;6220474;22;101037;-77
2024/01/25 00:54:15;;;;;;;14.38;2.85;;;;;;;8.52;59.48;100036.03;6194346;22;101042;-77
2024/01/25 00:56:41;;;;;;;11.95;2.72;;;;;;;8.38;58.91;100015.50;6221095;22;97076;-77
2024/01/25 00:59:07;;;;;;;11.90;2.45;;;;;;;8.56;58.46;100054.22;6220217;22;96866;-77
2024/01/25 01:01:32;;;;;;;18.23;3.70;;;;;;;8.47;58.93;100033.56;6220585;22;101113;-76
2024/01/25 01:03:59;;;;;;;12.93;2.38;;;;;;;8.63;58.23;100054.88;6193517;22;100788;-77
2024/01/25 01:06:25;;;;;;;17.92;3.80;;;;;;;8.54;58.18;100045.56;6220159;22;97329;-76
2024/01/25 01:08:51;;;;;;;16.17;4.22;;;;;;;8.40;57.82;100047.72;6219322;22;97255;-76
2024/01/25 01:11:17;;;;;;;13.85;3.30;;;;;;;8.59;58.04;100061.13;6247058;22;98041;-78
2024/01/25 01:13:42;;;;;;;15.82;3.38;;;;;;;8.47;57.67;100053.66;6219735;22;101218;-77
2024/01/25 01:16:08;;;;;;;10.35;2.65;;;;;;;8.69;57.64;100075.63;6195521;22;96717;-76
2024/01/25 01:18:34;;;;;;;13.90;2.95;;;;;;;8.66;57.84;100070.50;6245934;22;96959;-77
2024/01/25 01:20:59;;;;;;;12.98;3.15;;;;;;;8.43;58.26;100047.63;6273801;22;97324;-77
2024/01/25 01:23:25;;;;;;;15.93;3.40;;;;;;;8.54;58.14;100063.03;6194967;22;101278;-77
2024/01/25 01:25:51;;;;;;;21.02;3.60;;;;;;;8.56;57.98;100074.31;6220596;22;96757;-77
2024/01/25 01:28:16;;;;;;;11.25;2.95;;;;;;;8.55;57.97;100083.03;6220004;22;96873;-77
2024/01/25 01:30:42;;;;;;;15.15;3.38;;;;;;;8.46;58.14;100088.53;6219668;22;97349;-76
2024/01/25 01:33:10;;;;;;;18.13;3.80;;;;;;;8.53;58.15;100084.88;6193277;22;100658;-77
2024/01/25 01:35:36;;;;;;;14.93;3.58;;;;;;;8.53;57.84;100087.47;6221071;22;96660;-76
2024/01/25 01:38:01;;;;;;;15.27;3.25;;;;;;;8.53;57.78;100071.78;6219944;22;96729;-77
2024/01/25 01:40:27;;;;;;;11.60;3.80;;;;;;;8.54;57.82;100091.81;6245830;22;97869;-78
2024/01/25 01:43:01;;;;;;;13.77;3.65;;;;;;;8.66;58.04;100108.91;6274022;22;98284;-77
2024/01/25 01:45:26;;;;;;;15.75;3.90;;;;;;;8.54;57.82;100091.81;6222188;22;96712;-77
2024/01/25 01:47:53;;;;;;;12.48;3.33;;;;;;;8.55;57.69;100093.50;6247780;22;97188;-78
2024/01/25 01:50:18;;;;;;;13.30;3.40;;;;;;;8.68;57.37;100099.25;6247488;22;97418;-77
2024/01/25 01:52:45;;;;;;;14.35;3.00;;;;;;;8.64;57.42;100095.00;6246821;22;97334;-77
2024/01/25 01:55:11;;;;;;;14.60;3.95;;;;;;;8.63;57.43;100106.38;6247192;22;96690;-76
2024/01/25 01:57:37;;;;;;;11.05;3.10;;;;;;;8.63;57.32;100102.00;6221319;22;96776;-77
2024/01/25 02:00:08;;;;;;;12.80;3.80;;;;;;;8.54;57.28;100084.81;6195661;22;101761;-78
2024/01/25 02:02:37;;;;;;;13.07;3.00;;;;;;;8.60;57.18;100107.31;6246962;22;97863;-77
2024/01/25 02:05:02;;;;;;;14.00;3.60;;;;;;;8.68;57.21;100099.25;6275691;22;96657;-77
2024/01/25 02:07:28;;;;;;;12.27;3.38;;;;;;;8.78;56.75;100121.59;6246951;22;97157;-77
2024/01/25 02:09:53;;;;;;;14.10;3.20;;;;;;;8.61;57.08;100099.44;6274805;22;97739;-76
2024/01/25 02:12:19;;;;;;;11.50;3.33;;;;;;;8.63;57.02;100109.00;6247377;22;100682;-76
2024/01/25 02:14:45;;;;;;;15.35;3.97;;;;;;;8.60;57.06;100102.09;6247253;22;97375;-77
2024/01/25 02:17:11;;;;;;;13.02;3.38;;;;;;;8.62;56.74;100110.75;6221838;22;96734;-76
2024/01/25 02:19:36;;;;;;;15.38;3.75;;;;;;;8.55;56.79;100085.66;6245960;22;97688;-77
2024/01/25 02:22:04;;;;;;;18.83;4.32;;;;;;;8.72;57.08;100113.94;6247071;22;101354;-76
2024/01/25 02:24:29;;;;;;;13.50;3.00;;;;;;;8.70;57.30;100118.38;6246874;22;96644;-77
2024/01/25 02:26:55;;;;;;;14.77;3.35;;;;;;;8.71;56.71;100110.47;6247699;22;96805;-77
2024/01/25 02:29:21;;;;;;;13.95;3.40;;;;;;;8.74;56.67;100102.53;6245750;22;97211;-77
2024/01/25 02:31:46;;;;;;;8.52;2.58;;;;;;;8.70;56.69;100087.84;6246882;22;97806;-77
2024/01/25 02:34:12;;;;;;;14.25;2.65;;;;;;;8.75;56.93;100104.22;6220704;22;97115;-77
2024/01/25 02:36:37;;;;;;;14.63;3.30;;;;;;;8.80;56.84;100102.34;6222737;22;97346;-76
2024/01/25 02:39:04;;;;;;;17.15;4.18;;;;;;;8.72;57.16;100091.25;6246299;22;97314;-77
2024/01/25 02:41:30;;;;;;;18.15;3.78;;;;;;;8.55;57.04;100057.75;6221434;22;101614;-77
2024/01/25 02:43:56;;;;;;;13.10;3.55;;;;;;;8.60;56.74;100100.31;6220426;22;96732;-77
2024/01/25 02:46:21;;;;;;;12.75;3.28;;;;;;;8.65;57.26;100092.34;6247600;22;96722;-76
2024/01/25 02:48:47;;;;;;;18.13;3.70;;;;;;;8.69;56.54;100103.56;6246481;22;97461;-77
2024/01/25 02:51:12;;;;;;;14.48;2.95;;;;;;;8.76;57.04;100108.59;6221337;22;101572;-77
2024/01/25 02:53:38;;;;;;;12.15;3.63;;;;;;;8.68;57.30;100084.41;6246589;22;97039;-77
2024/01/25 02:56:04;;;;;;;13.82;3.30;;;;;;;8.87;56.97;100097.78;6221972;22;96972;-77
2024/01/25 02:58:31;;;;;;;12.32;3.00;;;;;;;8.66;57.03;100080.97;6220563;22;99022;-77
2024/01/25 03:00:56;;;;;;;10.45;3.28;;;;;;;8.66;56.84;100077.50;6196113;22;101401;-77
2024/01/25 03:03:23;;;;;;;15.55;3.33;;;;;;;8.68;57.19;100104.47;6220013;22;96666;-77
2024/01/25 03:05:49;;;;;;;15.45;3.25;;;;;;;8.79;57.01;100112.88;6275432;22;96738;-77
2024/01/25 03:08:15;;;;;;;10.30;2.85;;;;;;;8.67;56.86;100118.44;6219603;22;97824;-76
2024/01/25 03:10:40;;;;;;;17.75;3.67;;;;;;;8.72;57.12;100121.78;6245553;22;97373;-77
2024/01/25 03:13:05;;;;;;;19.98;4.05;;;;;;;8.74;57.14;100126.09;6245819;22;96655;-76
2024/01/25 03:15:32;;;;;;;15.07;3.60;;;;;;;8.69;57.17;100133.22;6247515;22;96709;-76
2024/01/25 03:17:57;;;;;;;16.83;3.75;;;;;;;8.83;57.22;100133.66;6274179;22;98222;-77
2024/01/25 03:20:23;;;;;;;12.85;3.40;;;;;;;8.82;57.25;100131.09;6221003;22;101564;-77
2024/01/25 03:22:48;;;;;;;19.45;3.47;;;;;;;8.84;56.68;100114.47;6221095;22;96716;-77
2024/01/25 03:25:14;;;;;;;13.98;2.63;;;;;;;8.68;56.94;100101.88;6222079;22;97387;-77
2024/01/25 03:27:39;;;;;;;10.73;3.20;;;;;;;8.73;56.55;100121.78;6245963;22;99669;-77
2024/01/25 03:30:06;;;;;;;14.05;2.92;;;;;;;8.72;56.85;100125.25;6195459;22;100900;-77
2024/01/25 03:32:33;;;;;;;18.58;4.00;;;;;;;8.60;56.33;100110.78;6246400;22;96945;-77
2024/01/25 03:34:59;;;;;;;12.18;2.60;;;;;;;8.77;56.64;100126.00;6246742;22;96732;-77
2024/01/25 03:37:24;;;;;;;18.98;3.70;;;;;;;8.81;56.33;100132.88;6246673;22;97379;-77
2024/01/25 03:39:50;;;;;;;10.63;2.40;;;;;;;8.86;56.40;100126.63;6194898;22;101150;-77
2024/01/25 03:42:15;;;;;;;17.40;3.38;;;;;;;8.73;56.31;100118.28;6221603;22;96616;-77
2024/01/25 03:44:42;;;;;;;18.27;4.05;;;;;;;8.76;56.74;100126.91;6195340;22;97070;-76
2024/01/25 03:47:07;;;;;;;12.25;3.15;;;;;;;8.75;56.48;100126.94;6221052;22;101297;-77
2024/01/25 03:49:33;;;;;;;10.13;2.95;;;;;;;8.71;56.51;100114.84;6246384;22;97094;-77
2024/01/25 03:51:58;;;;;;;13.10;3.97;;;;;;;8.70;56.42;100121.00;6247408;22;96675;-77
2024/01/25 03:54:24;;;;;;;10.63;3.03;;;;;;;8.88;57.05;100124.84;6221097;22;97164;-77
2024/01/25 03:56:49;;;;;;;16.30;3.55;;;;;;;8.81;57.01;100125.03;6246220;22;97453;-76
2024/01/25 03:59:15;;;;;;;15.43;3.30;;;;;;;8.81;56.69;100116.28;6220041;22;101247;-77
2024/01/25 04:01:43;;;;;;;12.50;3.20;;;;;;;8.78;56.86;100114.63;6195997;22;96673;-76
2024/01/25 04:04:10;;;;;;;16.88;5.30;;;;;;;8.63;57.20;100098.53;6273208;22;97104;-78
2024/01/25 04:06:38;;;;;;;12.35;3.35;;;;;;;8.63;57.19;100088.06;6220619;22;101145;-77
2024/01/25 04:09:04;;;;;;;14.43;3.67;;;;;;;8.68;57.51;100100.09;6219811;22;101366;-77
2024/01/25 04:11:30;;;;;;;14.20;3.72;;;;;;;8.74;57.86;100115.63;6247343;22;96598;-77
2024/01/25 04:13:55;;;;;;;12.02;2.97;;;;;;;8.75;57.91;100111.22;6221157;22;96881;-76
2024/01/25 04:16:21;;;;;;;11.98;3.33;;;;;;;8.53;57.67;100079.63;6221001;22;101412;-76
2024/01/25 04:18:46;;;;;;;13.55;2.85;;;;;;;8.66;57.87;100099.28;6219801;22;100810;-76
2024/01/25 04:21:12;;;;;;;11.20;3.40;;;;;;;8.59;58.00;100088.16;6220686;22;96640;-76
2024/01/25 04:23:37;;;;;;;10.07;2.88;;;;;;;8.80;57.71;100120.66;6246415;22;96970;-76
2024/01/25 04:26:03;;;;;;;19.00;4.15;;;;;;;8.66;58.18;100096.66;6195532;22;101045;-76
2024/01/25 04:28:28;;;;;;;12.85;3.55;;;;;;;8.85;58.06;100110.06;6219806;22;100593;-78
2024/01/25 04:30:54;;;;;;;14.07;3.90;;;;;;;8.71;58.14;100079.06;6221090;22;96606;-77
2024/01/25 04:33:20;;;;;;;15.45;4.07;;;;;;;8.78;57.43;100092.81;6245837;22;96808;-77
2024/01/25 04:35:45;;;;;;;14.65;3.22;;;;;;;8.82;57.55;100094.47;6195498;22;101226;-76
2024/01/25 04:38:11;;;;;;;14.70;3.47;;;;;;;8.73;57.61;100082.50;6195142;22;100708;-76
2024/01/25 04:40:36;;;;;;;13.25;3.95;;;;;;;8.84;57.81;100110.97;6220940;22;96722;-76
2024/01/25 04:43:02;;;;;;;18.30;4.50;;;;;;;8.92;58.01;100103.72;6220234;22;97144;-76
2024/01/25 04:45:27;;;;;;;15.98;3.05;;;;;;;8.95;57.92;100111.50;6246011;22;97577;-77
2024/01/25 04:47:53;;;;;;;14.15;3.53;;;;;;;8.94;57.96;100111.56;6219843;22;100828;-76
2024/01/25 04:50:18;;;;;;;14.57;2.72;;;;;;;8.84;58.03;100109.22;6246598;22;96907;-77
2024/01/25 04:52:44;;;;;;;11.45;3.10;;;;;;;8.74;58.69;100105.16;6246528;22;96685;-78
2024/01/25 04:55:09;;;;;;;11.35;3.22;;;;;;;8.68;58.49;100107.94;6246298;22;97338;-77
2024/01/25 04:57:35;;;;;;;22.20;4.72;;;;;;;8.61;58.59;100094.19;6220195;22;97823;-76
2024/01/25 05:00:00;;;;;;;10.65;2.47;;;;;;;8.61;58.69;100091.59;6220415;22;96679;-77
2024/01/25 05:02:26;;;;;;;11.05;3.05;;;;;;;8.59;58.82;100101.22;6221375;22;96738;-77
2024/01/25 05:04:51;;;;;;;9.73;2.25;;;;;;;8.56;59.24;100106.56;6219738;22;97476;-77
2024/01/25 05:07:17;;;;;;;18.27;3.22;;;;;;;8.52;59.09;100094.47;6245677;22;97866;-77
2024/01/25 05:09:42;;;;;;;13.88;2.92;;;;;;;8.59;59.36;100098.63;6194102;22;96632;-76
2024/01/25 05:12:08;;;;;;;13.82;3.22;;;;;;;8.57;58.97;100102.19;6246741;22;96838;-76
2024/01/25 05:14:33;;;;;;;18.13;3.72;;;;;;;8.42;59.33;100079.94;6219933;22;100333;-78
2024/01/25 05:16:59;;;;;;;15.77;3.88;;;;;;;8.48;59.14;100099.81;6195897;22;101107;-77
2024/01/25 05:19:25;;;;;;;13.57;3.20;;;;;;;8.56;58.98;100103.09;6247186;22;97042;-76
2024/01/25 05:21:51;;;;;;;15.45;3.10;;;;;;;8.58;58.86;100096.91;6196689;22;96833;-77
2024/01/25 05:24:16;;;;;;;9.73;2.67;;;;;;;8.36;59.20;100059.16;6274541;22;98323;-77
2024/01/25 05:26:42;;;;;;;12.70;3.08;;;;;;;8.52;59.26;100089.25;6196789;22;100801;-76
2024/01/25 05:29:07;;;;;;;15.95;3.95;;;;;;;8.57;59.16;100095.19;6221273;22;96784;-76
2024/01/25 05:31:33;;;;;;;14.60;3.75;;;;;;;8.57;59.53;100102.19;6196658;22;96893;-76
2024/01/25 05:33:58;;;;;;;12.43;2.92;;;;;;;8.51;59.45;100102.34;6245558;22;97429;-76
2024/01/25 05:36:24;;;;;;;13.57;3.63;;;;;;;8.51;60.15;100094.50;6221537;22;101131;-77
2024/01/25 05:38:49;;;;;;;12.20;3.28;;;;;;;8.55;59.94;100110.09;6247118;22;96692;-77
2024/01/25 05:41:15;;;;;;;11.57;2.78;;;;;;;8.54;60.43;100110.97;6222127;22;96748;-76
2024/01/25 05:43:40;;;;;;;15.18;3.08;;;;;;;8.37;60.49;100090.47;6221103;22;97930;-77
2024/01/25 05:46:06;;;;;;;11.30;3.60;;;;;;;8.36;60.55;100091.41;6221498;22;100837;-77
2024/01/25 05:48:31;;;;;;;17.73;2.95;;;;;;;8.48;60.66;100100.69;6247199;22;97080;-76
2024/01/25 05:50:57;;;;;;;12.15;2.88;;;;;;;8.25;60.48;100082.13;6276161;22;96747;-77
2024/01/25 05:53:22;;;;;;;11.95;3.00;;;;;;;8.36;61.16;100107.09;6220743;22;101204;-76
2024/01/25 05:55:48;;;;;;;16.92;3.95;;;;;;;8.36;61.45;100121.94;6247439;22;97423;-76
2024/01/25 05:58:13;;;;;;;13.20;2.92;;;;;;;8.33;61.99;100130.72;6220990;22;96653;-76
2024/01/25 06:00:39;;;;;;;19.40;3.22;;;;;;;8.28;61.82;100129.13;6196372;22;96784;-77
2024/01/25 06:03:05;;;;;;;17.17;3.03;;;;;;;8.12;62.14;100119.09;6220263;22;101348;-77
2024/01/25 06:05:30;;;;;;;14.57;3.67;;;;;;;8.20;61.88;100129.31;6246989;22;97361;-76
2024/01/25 06:07:56;;;;;;;13.98;3.60;;;;;;;8.10;62.39;100123.50;6195504;22;96826;-77
2024/01/25 06:10:21;;;;;;;15.48;3.50;;;;;;;8.21;62.39;100146.75;6221560;22;96841;-76
2024/01/25 06:12:47;;;;;;;18.70;4.10;;;;;;;8.18;62.41;100141.59;6246639;22;100903;-76
2024/01/25 06:15:12;;;;;;;17.25;3.78;;;;;;;8.27;62.42;100141.34;6196475;22;100886;-76
2024/01/25 06:17:38;;;;;;;18.55;5.05;;;;;;;8.21;62.38;100132.81;6274977;22;96751;-76
2024/01/25 06:20:04;;;;;;;17.77;3.85;;;;;;;8.25;62.02;100144.91;6247072;22;97141;-76
2024/01/25 06:22:30;;;;;;;19.75;4.25;;;;;;;8.22;62.11;100130.16;6246580;22;97849;-76
2024/01/25 06:24:55;;;;;;;18.48;3.95;;;;;;;8.24;62.33;100130.13;6247281;22;97159;-76
2024/01/25 06:27:21;;;;;;;20.42;4.45;;;;;;;8.23;61.77;100149.31;6246589;22;97273;-77
2024/01/25 06:29:47;;;;;;;17.90;3.95;;;;;;;8.20;61.63;100144.16;6221315;22;96748;-76
2024/01/25 06:32:12;;;;;;;20.42;4.38;;;;;;;8.21;61.82;100149.38;6221465;22;97235;-76
2024/01/25 06:34:37;;;;;;;17.73;3.85;;;;;;;8.12;61.52;100139.16;6219647;22;101295;-76
2024/01/25 06:37:03;;;;;;;18.15;3.90;;;;;;;8.20;61.25;100142.41;6275262;22;96606;-76
2024/01/25 06:39:29;;;;;;;21.60;4.60;;;;;;;8.18;60.75;100125.91;6221018;22;96998;-75
2024/01/25 06:41:54;;;;;;;21.92;3.83;;;;;;;8.22;61.25;100152.84;6247019;22;101719;-77
2024/01/25 06:44:20;;;;;;;18.75;4.28;;;;;;;8.13;60.70;100159.16;6194964;22;100669;-76
2024/01/25 06:46:45;;;;;;;11.68;3.33;;;;;;;8.31;60.54;100171.75;6246848;22;96642;-75
2024/01/25 06:49:11;;;;;;;18.15;3.95;;;;;;;8.22;60.51;100161.53;6195060;22;97103;-76
2024/01/25 06:51:36;;;;;;;15.13;3.60;;;;;;;8.43;60.15;100170.56;6221326;22;97547;-75
2024/01/25 06:54:02;;;;;;;18.30;4.28;;;;;;;8.31;60.77;100163.88;6274078;22;97411;-76
2024/01/25 06:56:27;;;;;;;30.75;5.40;;;;;;;8.29;60.01;100163.09;6247227;22;96698;-76
2024/01/25 06:58:53;;;;;;;15.68;3.88;;;;;;;8.25;59.59;100152.75;6246491;22;97093;-76
2024/01/25 07:01:22;;;;;;;13.77;3.70;;;;;;;8.30;59.61;100162.19;6221122;22;101340;-76
2024/01/25 07:03:50;;;;;;;20.50;4.28;;;;;;;8.36;59.78;100175.09;6194755;22;101310;-76
2024/01/25 07:06:17;;;;;;;14.13;3.35;;;;;;;8.27;59.19;100151.81;6275232;22;96794;-76
2024/01/25 07:08:42;;;;;;;18.02;4.10;;;;;;;8.23;59.00;100160.66;6246154;22;97173;-76
2024/01/25 07:11:07;;;;;;;19.75;4.45;;;;;;;8.34;59.18;100179.50;6274190;22;97388;-75
2024/01/25 07:13:33;;;;;;;18.20;3.40;;;;;;;8.33;58.76;100148.16;6246347;22;98343;-76
2024/01/25 07:15:58;;;;;;;17.42;3.92;;;;;;;8.23;58.51;100142.34;6221506;22;96649;-75
2024/01/25 07:18:24;;;;;;;13.43;3.60;;;;;;;8.23;58.12;100154.53;6246677;22;96965;-76
2024/01/25 07:20:50;;;;;;;16.17;3.80;;;;;;;8.39;58.21;100176.81;6246524;22;97333;-77
2024/01/25 07:23:16;;;;;;;15.32;3.80;;;;;;;8.47;58.08;100174.84;6220498;22;100679;-76
2024/01/25 07:25:41;;;;;;;21.80;4.30;;;;;;;8.44;58.18;100174.06;6221419;22;96672;-76
2024/01/25 07:28:07;;;;;;;23.77;4.88;;;;;;;8.42;57.96;100200.25;6247237;22;96797;-76
2024/01/25 07:30:32;;;;;;;14.60;3.70;;;;;;;8.43;57.41;100183.66;6246357;22;97324;-76
2024/01/25 07:32:58;;;;;;;18.95;3.60;;;;;;;8.32;57.39;100163.00;6273554;22;97818;-76
2024/01/25 07:35:24;;;;;;;16.52;3.50;;;;;;;8.45;57.83;100189.72;6221056;22;96641;-76
2024/01/25 07:37:49;;;;;;;17.42;4.03;;;;;;;8.56;57.08;100189.44;6220995;22;97379;-76
2024/01/25 07:40:15;;;;;;;15.35;3.05;;;;;;;8.60;57.60;100198.91;6246885;22;97367;-76
2024/01/25 07:42:40;;;;;;;20.05;4.40;;;;;;;8.61;57.52;100205.88;6220299;22;101502;-76
2024/01/25 07:45:06;;;;;;;20.50;3.95;;;;;;;8.66;57.01;100193.47;6247145;22;96935;-76
2024/01/25 07:47:32;;;;;;;18.20;3.78;;;;;;;8.53;57.54;100187.75;6220673;22;97100;-76
2024/01/25 07:49:57;;;;;;;18.70;4.25;;;;;;;8.60;57.49;100198.91;6195203;22;101013;-76
2024/01/25 07:52:23;;;;;;;16.77;3.85;;;;;;;8.79;56.97;100225.41;6246951;22;97768;-76
2024/01/25 07:54:48;;;;;;;15.57;4.18;;;;;;;8.76;56.57;100223.75;6195309;22;96660;-76
2024/01/25 07:57:14;;;;;;;15.80;3.53;;;;;;;8.79;56.29;100251.59;6195753;22;96844;-77
2024/01/25 07:59:39;;;;;;;16.25;3.58;;;;;;;8.78;56.70;100253.31;6194247;22;101210;-78
2024/01/25 08:02:06;;;;;;;14.35;3.63;;;;;;;8.76;56.24;100249.91;6195480;22;101291;-77
2024/01/25 08:04:31;;;;;;;21.63;4.03;;;;;;;8.63;56.21;100203.19;6220000;22;96583;-77
2024/01/25 08:06:57;;;;;;;15.70;3.60;;;;;;;8.71;55.99;100223.00;6241520;22;97058;-77
2024/01/25 08:09:23;;;;;;;19.55;4.85;;;;;;;8.74;55.88;100241.25;6189653;22;100872;-77
2024/01/25 08:11:48;;;;;;;15.10;3.75;;;;;;;8.78;56.15;100250.72;6241929;22;97928;-77
2024/01/25 08:14:14;;;;;;;21.13;4.07;;;;;;;8.87;56.04;100239.13;6215307;22;97102;-77
2024/01/25 08:16:39;;;;;;;16.38;3.58;;;;;;;8.97;55.84;100258.91;6216606;22;97111;-77
2024/01/25 08:19:05;;;;;;;14.77;3.78;;;;;;;8.91;55.86;100264.34;6214485;22;101145;-78
2024/01/25 08:21:30;;;;;;;18.85;4.38;;;;;;;9.06;55.33;100263.03;6241408;22;97303;-77
2024/01/25 08:23:56;;;;;;;13.65;3.40;;;;;;;8.94;55.71;100279.09;6240461;22;97059;-77
2024/01/25 08:26:22;;;;;;;17.30;3.88;;;;;;;8.87;55.49;100269.69;6216045;22;96830;-75
2024/01/25 08:28:47;;;;;;;13.45;4.07;;;;;;;8.91;55.44;100285.28;6189337;22;101319;-75
2024/01/25 08:31:13;;;;;;;15.90;4.63;;;;;;;8.88;56.16;100267.03;6215586;22;98631;-76
2024/01/25 08:33:47;;;;;;;18.08;4.47;;;;;;;8.89;55.32;100292.31;6214426;22;97119;-76
2024/01/25 08:36:19;;;;;;;12.73;3.20;;;;;;;8.95;55.23;100273.81;6217541;22;97196;-76
2024/01/25 08:38:44;;;;;;;17.45;3.88;;;;;;;8.80;55.14;100240.22;6189625;22;101311;-76
2024/01/25 08:41:11;;;;;;;15.50;2.97;;;;;;;9.06;55.07;100273.50;6238357;22;97839;-77
2024/01/25 08:43:37;;;;;;;12.88;3.42;;;;;;;9.13;55.09;100282.91;6238799;22;96790;-77
2024/01/25 08:46:03;;;;;;;17.23;3.30;;;;;;;9.11;55.34;100295.19;6187262;22;97151;-76
2024/01/25 08:48:28;;;;;;;12.82;3.03;;;;;;;9.15;55.06;100288.09;6211853;22;101455;-77
2024/01/25 08:50:54;;;;;;;17.88;4.13;;;;;;;9.17;54.90;100287.16;6238079;22;97393;-77
2024/01/25 08:53:22;;;;;;;18.38;3.65;;;;;;;9.10;54.81;100279.50;6210169;22;97251;-76
2024/01/25 08:55:48;;;;;;;11.57;3.33;;;;;;;9.15;55.13;100295.97;6188166;22;96804;-76
2024/01/25 08:58:13;;;;;;;16.98;4.07;;;;;;;9.16;55.25;100298.56;6238372;22;97292;-77
2024/01/25 09:00:39;;;;;;;16.45;3.67;;;;;;;9.17;55.08;100313.34;6212024;22;101252;-77
2024/01/25 09:03:05;;;;;;;14.70;3.50;;;;;;;9.12;54.74;100285.56;6211616;22;97107;-77
2024/01/25 09:05:34;;;;;;;16.63;4.40;;;;;;;9.15;54.83;100295.97;6238379;22;97269;-76
2024/01/25 09:08:00;;;;;;;17.92;3.92;;;;;;;9.19;54.59;100308.94;6195539;22;101229;-76
2024/01/25 09:10:25;;;;;;;14.75;3.47;;;;;;;9.15;54.38;100281.09;6206765;22;101381;-77
2024/01/25 09:12:51;;;;;;;14.02;3.58;;;;;;;9.19;54.12;100288.00;6156153;22;96695;-76
2024/01/25 09:15:16;;;;;;;18.10;3.90;;;;;;;9.26;54.47;100288.66;6156820;22;97229;-76
2024/01/25 09:17:42;;;;;;;19.13;3.65;;;;;;;9.32;53.82;100327.78;6155825;22;101217;-78
2024/01/25 09:20:08;;;;;;;15.32;3.28;;;;;;;9.15;54.22;100324.78;6205112;22;97393;-77
2024/01/25 09:22:34;;;;;;;17.15;3.42;;;;;;;9.30;54.03;100333.03;6205959;22;96675;-76
2024/01/25 09:24:59;;;;;;;14.55;3.85;;;;;;;9.18;54.36;100322.91;6181148;22;96854;-76
2024/01/25 09:27:25;;;;;;;13.82;4.18;;;;;;;9.28;54.52;100334.88;6181008;22;98577;-77
2024/01/25 09:29:50;;;;;;;15.45;3.03;;;;;;;9.21;54.07;100333.31;6181018;22;97501;-77
2024/01/25 09:32:16;;;;;;;21.58;5.03;;;;;;;9.20;54.29;100320.28;6181631;22;97210;-77
2024/01/25 09:34:41;;;;;;;14.73;3.45;;;;;;;9.27;54.47;100300.84;6180549;22;97369;-76
2024/01/25 09:37:07;;;;;;;16.67;3.72;;;;;;;9.41;53.61;100347.59;6180487;22;101422;-78
2024/01/25 09:39:33;;;;;;;13.25;3.20;;;;;;;9.37;53.99;100327.66;6206522;22;97398;-78
2024/01/25 09:41:58;;;;;;;20.90;3.30;;;;;;;9.59;53.83;100349.69;6181102;22;96684;-77
2024/01/25 09:44:24;;;;;;;14.10;3.47;;;;;;;9.49;53.32;100341.25;6181602;22;96845;-77
2024/01/25 09:46:51;;;;;;;16.13;3.40;;;;;;;9.37;53.95;100362.56;6155826;22;101499;-75
2024/01/25 09:49:16;;;;;;;17.67;3.55;;;;;;;9.47;53.72;100369.25;6207649;22;97712;-76
2024/01/25 09:51:44;;;;;;;11.65;2.85;;;;;;;9.53;53.66;100366.44;6158996;22;96664;-81
2024/01/25 09:54:10;;;;;;;15.38;3.20;;;;;;;9.55;53.67;100350.69;6184373;22;97226;-81
2024/01/25 09:56:36;;;;;;;17.38;3.85;;;;;;;9.56;54.45;100343.69;6185285;22;100942;-83
2024/01/25 09:59:02;;;;;;;12.85;3.40;;;;;;;9.50;54.30;100361.28;6211022;22;96732;-82
2024/01/25 10:01:28;;;;;;;19.73;4.22;;;;;;;9.50;54.54;100347.34;6210045;22;96699;-76
2024/01/25 10:03:57;;;;;;;13.73;3.70;;;;;;;9.49;54.05;100343.88;6185730;22;96711;-81
2024/01/25 10:06:23;;;;;;;14.07;3.92;;;;;;;9.37;54.02;100328.50;6187184;22;97826;-80
2024/01/25 10:08:48;;;;;;;17.38;3.90;;;;;;;9.64;54.09;100353.03;6241418;22;100597;-80
2024/01/25 10:11:15;;;;;;;13.32;2.95;;;;;;;9.61;53.39;100331.31;6217937;22;96652;-80
2024/01/25 10:13:45;;;;;;;13.98;3.28;;;;;;;9.73;53.62;100337.03;6217188;22;97078;-80
2024/01/25 10:16:14;;;;;;;17.00;3.75;;;;;;;9.85;53.76;100359.38;6213761;22;100989;-82
2024/01/25 10:18:41;;;;;;;19.05;3.90;;;;;;;9.85;53.01;100351.53;6214599;22;101224;-80
2024/01/25 10:21:06;;;;;;;19.02;3.70;;;;;;;9.99;53.50;100366.84;6216127;22;96740;-79
2024/01/25 10:23:32;;;;;;;19.02;3.92;;;;;;;9.90;52.92;100362.72;6216576;22;96897;-79
2024/01/25 10:25:58;;;;;;;19.27;4.25;;;;;;;9.93;53.15;100380.13;6241564;22;97323;-72
2024/01/25 10:28:24;;;;;;;16.95;5.47;;;;;;;10.07;53.10;100379.72;6240387;22;97335;-76
2024/01/25 10:30:50;;;;;;;14.73;3.30;;;;;;;9.94;53.38;100377.47;6215812;22;96786;-75
2024/01/25 10:33:17;;;;;;;17.45;3.75;;;;;;;10.01;53.27;100380.78;6188371;22;97134;-77
2024/01/25 10:35:49;;;;;;;16.02;3.40;;;;;;;10.04;52.83;100362.31;6187235;22;100853;-75
2024/01/25 10:38:17;;;;;;;15.73;4.50;;;;;;;10.11;52.94;100371.69;6216157;22;97463;-79
2024/01/25 10:40:43;;;;;;;13.23;3.75;;;;;;;10.01;52.79;100369.44;6214811;22;96727;-78
2024/01/25 10:43:09;;;;;;;15.73;4.05;;;;;;;10.08;52.78;100379.66;6190865;22;97019;-77
2024/01/25 10:45:35;;;;;;;14.60;4.03;;;;;;;10.32;52.90;100377.19;6241423;22;97327;-77
2024/01/25 10:48:00;;;;;;;17.85;4.25;;;;;;;10.38;53.33;100369.13;6215554;22;101625;-77
2024/01/25 10:50:26;;;;;;;18.00;4.57;;;;;;;10.39;53.17;100361.22;6242367;22;97312;-78
2024/01/25 10:52:51;;;;;;;22.33;5.03;;;;;;;10.55;52.23;100374.69;6242873;22;96788;-80
2024/01/25 10:55:17;;;;;;;16.45;4.53;;;;;;;10.48;51.96;100374.97;6215024;22;97489;-82
2024/01/25 10:57:44;;;;;;;18.50;3.72;;;;;;;10.39;51.93;100358.59;6216417;22;97161;-81
2024/01/25 11:00:12;;;;;;;13.30;3.65;;;;;;;10.24;52.31;100342.44;6242021;22;97081;-81
2024/01/25 11:02:42;;;;;;;13.68;3.72;;;;;;;10.44;52.38;100353.19;6216347;22;96850;-80
2024/01/25 11:05:14;;;;;;;17.10;4.15;;;;;;;10.37;52.34;100342.03;6214735;22;97589;-75
2024/01/25 11:07:45;;;;;;;27.75;4.65;;;;;;;10.41;53.22;100355.91;6258295;22;97083;-74
2024/01/25 11:10:16;;;;;;;16.38;4.10;;;;;;;10.24;53.50;100351.19;6220461;22;97504;-74
2024/01/25 11:12:50;;;;;;;16.35;4.50;;;;;;;10.20;53.92;100358.28;6274487;22;97052;-75
2024/01/25 11:15:23;;;;;;;18.48;4.43;;;;;;;10.02;54.23;100347.53;6272708;22;98063;-75